Arbuckle, California
Current Conditions -  °F | °C
As of 6:29 AM on Saturday 22 Nov 2014 (Local Time) from KMYV Reporting Station
Light Rain Light Rain  
Wind Chill: 53°   Ceiling: 700
Heat Index: 53°   Visibility: 2mi
Dew Point: 51°   Wind: 18mph
Humidity: 93%   Direction: 150°SSE
Pressure: 30.02"   Gusts: 25mph
Location:  39.02°N, 122.06°W
Report Text: KMYV 221429Z AUTO 15016G22KT 2SM -RA BR OVC007 12/11 A3002 RMK AO2 CIG 005V011 P0003 T01170106
Loading
Personal Weather Stations






























Interactive Weather Map New forecast layout! Learn more

10-Day Weather Forecast

Advertisements
Track Severe Weather on mobile